sensor_id;sensor_type;location;lat;lon;timestamp;pressure;altitude;pressure_sealevel;temperature;humidity
71735;BME280;59577;52.122;5.406;2024-03-02T00:00:30;99850.63;;;8.20;92.19
71735;BME280;59577;52.122;5.406;2024-03-02T00:02:57;99839.84;;;8.20;92.38
71735;BME280;59577;52.122;5.406;2024-03-02T00:05:24;99842.53;;;8.20;92.63
71735;BME280;59577;52.122;5.406;2024-03-02T00:07:55;99837.97;;;8.20;92.80
71735;BME280;59577;52.122;5.406;2024-03-02T00:10:26;99843.69;;;8.19;92.15
71735;BME280;59577;52.122;5.406;2024-03-02T00:12:56;99838.38;;;8.22;92.05
71735;BME280;59577;52.122;5.406;2024-03-02T00:16:01;99851.19;;;8.29;91.25
71735;BME280;59577;52.122;5.406;2024-03-02T00:18:33;99846.97;;;8.32;91.08
71735;BME280;59577;52.122;5.406;2024-03-02T00:21:01;99869.75;;;8.34;91.69
71735;BME280;59577;52.122;5.406;2024-03-02T00:23:32;99877.84;;;8.34;91.39
71735;BME280;59577;52.122;5.406;2024-03-02T00:26:00;99889.47;;;8.38;90.92
71735;BME280;59577;52.122;5.406;2024-03-02T00:28:31;99883.31;;;8.38;91.22
71735;BME280;59577;52.122;5.406;2024-03-02T00:31:09;99889.81;;;8.37;91.12
71735;BME280;59577;52.122;5.406;2024-03-02T00:33:46;99912.97;;;8.38;91.38
71735;BME280;59577;52.122;5.406;2024-03-02T00:36:22;99911.03;;;8.38;91.44
71735;BME280;59577;52.122;5.406;2024-03-02T00:38:52;99925.66;;;8.37;91.74
71735;BME280;59577;52.122;5.406;2024-03-02T00:41:32;99931.41;;;8.36;91.96
71735;BME280;59577;52.122;5.406;2024-03-02T00:44:00;99943.28;;;8.31;93.19
71735;BME280;59577;52.122;5.406;2024-03-02T00:46:29;99953.56;;;8.25;94.19
71735;BME280;59577;52.122;5.406;2024-03-02T00:48:58;99947.69;;;8.20;94.69
71735;BME280;59577;52.122;5.406;2024-03-02T00:51:27;99942.56;;;8.15;95.15
71735;BME280;59577;52.122;5.406;2024-03-02T00:53:57;99940.97;;;8.10;96.62
71735;BME280;59577;52.122;5.406;2024-03-02T00:56:24;99947.41;;;8.05;97.09
71735;BME280;59577;52.122;5.406;2024-03-02T00:58:51;99952.69;;;7.98;97.91
71735;BME280;59577;52.122;5.406;2024-03-02T01:01:19;99958.28;;;7.89;98.84
71735;BME280;59577;52.122;5.406;2024-03-02T01:03:49;99960.84;;;7.82;100.00
71735;BME280;59577;52.122;5.406;2024-03-02T01:06:17;99967.22;;;7.74;100.00
71735;BME280;59577;52.122;5.406;2024-03-02T01:08:43;99962.03;;;7.65;100.00
71735;BME280;59577;52.122;5.406;2024-03-02T01:11:10;99959.59;;;7.60;100.00
71735;BME280;59577;52.122;5.406;2024-03-02T01:13:36;99964.50;;;7.55;100.00
71735;BME280;59577;52.122;5.406;2024-03-02T01:16:03;99965.13;;;7.48;100.00
71735;BME280;59577;52.122;5.406;2024-03-02T01:18:30;99949.94;;;7.40;100.00
71735;BME280;59577;52.122;5.406;2024-03-02T01:20:57;99952.47;;;7.32;100.00
71735;BME280;59577;52.122;5.406;2024-03-02T01:23:24;99953.44;;;7.24;100.00
71735;BME280;59577;52.122;5.406;2024-03-02T01:25:51;99961.78;;;7.19;100.00
71735;BME280;59577;52.122;5.406;2024-03-02T01:28:19;99968.22;;;7.14;100.00
71735;BME280;59577;52.122;5.406;2024-03-02T01:30:47;99976.91;;;7.08;100.00
71735;BME280;59577;52.122;5.406;2024-03-02T01:33:15;99977.63;;;7.05;100.00
71735;BME280;59577;52.122;5.406;2024-03-02T01:35:42;99971.00;;;7.02;100.00
71735;BME280;59577;52.122;5.406;2024-03-02T01:38:09;99965.97;;;7.01;100.00
71735;BME280;59577;52.122;5.406;2024-03-02T01:40:36;99974.75;;;6.97;100.00
71735;BME280;59577;52.122;5.406;2024-03-02T01:43:04;99977.44;;;6.97;100.00
71735;BME280;59577;52.122;5.406;2024-03-02T01:45:31;99971.59;;;6.95;100.00
71735;BME280;59577;52.122;5.406;2024-03-02T01:47:58;99972.75;;;6.94;100.00
71735;BME280;59577;52.122;5.406;2024-03-02T01:50:31;99984.63;;;6.93;100.00
71735;BME280;59577;52.122;5.406;2024-03-02T01:52:58;99982.28;;;6.92;100.00
71735;BME280;59577;52.122;5.406;2024-03-02T01:55:25;99983.00;;;6.89;100.00
71735;BME280;59577;52.122;5.406;2024-03-02T01:57:52;99983.34;;;6.87;100.00
71735;BME280;59577;52.122;5.406;2024-03-02T02:00:22;99981.34;;;6.84;100.00
71735;BME280;59577;52.122;5.406;2024-03-02T02:02:51;99980.50;;;6.80;100.00
71735;BME280;59577;52.122;5.406;2024-03-02T02:05:18;99985.41;;;6.78;100.00
71735;BME280;59577;52.122;5.406;2024-03-02T02:07:45;99972.69;;;6.75;100.00
71735;BME280;59577;52.122;5.406;2024-03-02T02:10:12;99982.97;;;6.73;100.00
71735;BME280;59577;52.122;5.406;2024-03-02T02:12:39;99988.72;;;6.71;100.00
71735;BME280;59577;52.122;5.406;2024-03-02T02:15:29;99991.31;;;6.68;100.00
71735;BME280;59577;52.122;5.406;2024-03-02T02:17:58;99991.69;;;6.66;100.00
71735;BME280;59577;52.122;5.406;2024-03-02T02:20:25;99995.47;;;6.65;100.00
71735;BME280;59577;52.122;5.406;2024-03-02T02:23:00;99992.69;;;6.62;100.00
71735;BME280;59577;52.122;5.406;2024-03-02T02:25:28;99991.03;;;6.57;100.00
71735;BME280;59577;52.122;5.406;2024-03-02T02:27:55;99987.06;;;6.51;100.00
71735;BME280;59577;52.122;5.406;2024-03-02T02:30:28;99974.22;;;6.44;100.00
71735;BME280;59577;52.122;5.406;2024-03-02T02:32:55;99981.38;;;6.40;100.00
71735;BME280;59577;52.122;5.406;2024-03-02T02:35:22;99975.13;;;6.36;100.00
71735;BME280;59577;52.122;5.406;2024-03-02T02:37:52;99980.41;;;6.32;100.00
71735;BME280;59577;52.122;5.406;2024-03-02T02:40:19;99985.69;;;6.29;100.00
71735;BME280;59577;52.122;5.406;2024-03-02T02:42:46;99991.41;;;6.27;100.00
71735;BME280;59577;52.122;5.406;2024-03-02T02:45:13;99992.09;;;6.24;100.00
71735;BME280;59577;52.122;5.406;2024-03-02T02:47:41;99990.56;;;6.23;100.00
71735;BME280;59577;52.122;5.406;2024-03-02T02:50:08;99997.03;;;6.22;100.00
71735;BME280;59577;52.122;5.406;2024-03-02T02:52:37;99993.91;;;6.20;100.00
71735;BME280;59577;52.122;5.406;2024-03-02T02:55:07;99990.78;;;6.18;100.00
71735;BME280;59577;52.122;5.406;2024-03-02T02:57:35;99999.53;;;6.15;100.00
71735;BME280;59577;52.122;5.406;2024-03-02T03:00:13;100007.94;;;6.13;100.00
71735;BME280;59577;52.122;5.406;2024-03-02T03:02:44;99993.25;;;6.11;100.00
71735;BME280;59577;52.122;5.406;2024-03-02T03:05:12;99999.34;;;6.08;100.00
71735;BME280;59577;52.122;5.406;2024-03-02T03:07:42;99995.41;;;6.05;100.00
71735;BME280;59577;52.122;5.406;2024-03-02T03:10:11;99993.06;;;6.03;100.00
71735;BME280;59577;52.122;5.406;2024-03-02T03:12:37;99991.84;;;6.01;100.00
71735;BME280;59577;52.122;5.406;2024-03-02T03:15:04;99991.09;;;6.00;100.00
71735;BME280;59577;52.122;5.406;2024-03-02T03:17:33;99991.09;;;6.00;100.00
71735;BME280;59577;52.122;5.406;2024-03-02T03:20:01;99991.44;;;5.99;100.00
71735;BME280;59577;52.122;5.406;2024-03-02T03:22:28;99989.84;;;5.98;100.00
71735;BME280;59577;52.122;5.406;2024-03-02T03:24:55;100004.72;;;5.95;100.00
71735;BME280;59577;52.122;5.406;2024-03-02T03:27:21;99996.56;;;5.92;100.00
71735;BME280;59577;52.122;5.406;2024-03-02T03:29:48;100008.44;;;5.91;100.00
71735;BME280;59577;52.122;5.406;2024-03-02T03:32:14;100006.84;;;5.90;100.00
71735;BME280;59577;52.122;5.406;2024-03-02T03:34:41;100009.88;;;5.88;100.00
71735;BME280;59577;52.122;5.406;2024-03-02T03:37:07;100003.28;;;5.86;100.00
71735;BME280;59577;52.122;5.406;2024-03-02T03:39:34;100009.34;;;5.82;100.00
71735;BME280;59577;52.122;5.406;2024-03-02T03:42:03;100010.09;;;5.83;100.00
71735;BME280;59577;52.122;5.406;2024-03-02T03:44:29;100006.66;;;5.82;100.00
71735;BME280;59577;52.122;5.406;2024-03-02T03:46:56;100012.13;;;5.86;100.00
71735;BME280;59577;52.122;5.406;2024-03-02T03:49:22;100017.16;;;5.88;100.00
71735;BME280;59577;52.122;5.406;2024-03-02T03:51:48;100021.09;;;5.90;100.00
71735;BME280;59577;52.122;5.406;2024-03-02T03:54:15;100025.75;;;5.93;100.00
71735;BME280;59577;52.122;5.406;2024-03-02T03:56:42;100025.88;;;5.97;100.00
71735;BME280;59577;52.122;5.406;2024-03-02T03:59:09;100014.03;;;5.98;100.00
71735;BME280;59577;52.122;5.406;2024-03-02T04:01:35;100017.16;;;6.00;100.00
71735;BME280;59577;52.122;5.406;2024-03-02T04:04:02;100007.63;;;6.02;100.00
71735;BME280;59577;52.122;5.406;2024-03-02T04:06:29;100005.38;;;6.05;100.00
71735;BME280;59577;52.122;5.406;2024-03-02T04:08:56;100010.75;;;6.05;100.00
71735;BME280;59577;52.122;5.406;2024-03-02T04:11:23;100030.00;;;6.07;100.00
71735;BME280;59577;52.122;5.406;2024-03-02T04:13:49;100024.97;;;6.05;100.00
71735;BME280;59577;52.122;5.406;2024-03-02T04:16:16;100023.19;;;6.09;100.00
71735;BME280;59577;52.122;5.406;2024-03-02T04:18:42;100029.31;;;6.10;100.00
71735;BME280;59577;52.122;5.406;2024-03-02T04:21:09;100037.16;;;6.15;100.00
71735;BME280;59577;52.122;5.406;2024-03-02T04:23:35;100030.19;;;6.14;100.00
71735;BME280;59577;52.122;5.406;2024-03-02T04:26:02;100027.94;;;6.16;100.00
71735;BME280;59577;52.122;5.406;2024-03-02T04:28:28;100032.97;;;6.17;100.00
71735;BME280;59577;52.122;5.406;2024-03-02T04:30:55;100034.13;;;6.16;100.00
71735;BME280;59577;52.122;5.406;2024-03-02T04:33:21;100037.25;;;6.18;100.00
71735;BME280;59577;52.122;5.406;2024-03-02T04:35:48;100037.25;;;6.18;100.00
71735;BME280;59577;52.122;5.406;2024-03-02T04:38:14;100033.44;;;6.19;100.00
71735;BME280;59577;52.122;5.406;2024-03-02T04:40:41;100036.56;;;6.21;100.00
71735;BME280;59577;52.122;5.406;2024-03-02T04:43:07;100041.13;;;6.21;100.00
71735;BME280;59577;52.122;5.406;2024-03-02T04:45:38;100046.09;;;6.19;100.00
71735;BME280;59577;52.122;5.406;2024-03-02T04:48:05;100048.09;;;6.22;100.00
71735;BME280;59577;52.122;5.406;2024-03-02T04:50:32;100048.88;;;6.22;100.00
71735;BME280;59577;52.122;5.406;2024-03-02T04:52:58;100061.19;;;6.24;100.00
71735;BME280;59577;52.122;5.406;2024-03-02T04:55:25;100060.41;;;6.23;100.00
71735;BME280;59577;52.122;5.406;2024-03-02T04:58:12;100065.00;;;6.22;100.00
71735;BME280;59577;52.122;5.406;2024-03-02T05:00:38;100068.38;;;6.19;100.00
71735;BME280;59577;52.122;5.406;2024-03-02T05:03:05;100070.25;;;6.19;100.00
71735;BME280;59577;52.122;5.406;2024-03-02T05:05:31;100064.13;;;6.18;100.00
71735;BME280;59577;52.122;5.406;2024-03-02T05:07:58;100065.22;;;6.17;100.00
71735;BME280;59577;52.122;5.406;2024-03-02T05:10:24;100068.72;;;6.18;100.00
71735;BME280;59577;52.122;5.406;2024-03-02T05:12:51;100073.28;;;6.17;100.00
71735;BME280;59577;52.122;5.406;2024-03-02T05:15:26;100071.75;;;6.16;100.00
71735;BME280;59577;52.122;5.406;2024-03-02T05:17:52;100069.50;;;6.18;100.00
71735;BME280;59577;52.122;5.406;2024-03-02T05:20:20;100073.75;;;6.19;100.00
71735;BME280;59577;52.122;5.406;2024-03-02T05:22:47;100071.41;;;6.18;100.00
71735;BME280;59577;52.122;5.406;2024-03-02T05:25:13;100073.28;;;6.17;100.00
71735;BME280;59577;52.122;5.406;2024-03-02T05:27:40;100073.28;;;6.17;100.00
71735;BME280;59577;52.122;5.406;2024-03-02T05:30:07;100076.78;;;6.18;100.00
71735;BME280;59577;52.122;5.406;2024-03-02T05:32:35;100079.47;;;6.18;100.00
71735;BME280;59577;52.122;5.406;2024-03-02T05:35:01;100078.00;;;6.20;100.00
71735;BME280;59577;52.122;5.406;2024-03-02T05:37:29;100084.94;;;6.21;100.00
71735;BME280;59577;52.122;5.406;2024-03-02T05:39:56;100079.22;;;6.23;100.00
71735;BME280;59577;52.122;5.406;2024-03-02T05:42:22;100067.13;;;6.17;100.00
71735;BME280;59577;52.122;5.406;2024-03-02T05:44:49;100071.88;;;6.08;100.00
71735;BME280;59577;52.122;5.406;2024-03-02T05:47:16;100078.59;;;6.01;100.00
71735;BME280;59577;52.122;5.406;2024-03-02T05:49:42;100075.38;;;5.96;100.00
71735;BME280;59577;52.122;5.406;2024-03-02T05:52:09;100080.28;;;5.94;100.00
71735;BME280;59577;52.122;5.406;2024-03-02T05:54:35;100080.06;;;5.99;100.00
71735;BME280;59577;52.122;5.406;2024-03-02T05:57:02;100085.09;;;6.00;100.00
71735;BME280;59577;52.122;5.406;2024-03-02T05:59:43;100083.53;;;5.99;100.00
71735;BME280;59577;52.122;5.406;2024-03-02T06:02:10;100081.19;;;5.98;100.00
71735;BME280;59577;52.122;5.406;2024-03-02T06:04:36;100093.50;;;5.99;100.00
71735;BME280;59577;52.122;5.406;2024-03-02T06:07:03;100093.59;;;6.02;100.00
71735;BME280;59577;52.122;5.406;2024-03-02T06:09:29;100090.81;;;5.99;100.00
71735;BME280;59577;52.122;5.406;2024-03-02T06:11:56;100094.94;;;5.96;100.00
71735;BME280;59577;52.122;5.406;2024-03-02T06:14:22;100101.75;;;5.94;100.00
71735;BME280;59577;52.122;5.406;2024-03-02T06:16:49;100106.00;;;5.95;100.00
71735;BME280;59577;52.122;5.406;2024-03-02T06:19:16;100108.69;;;5.95;100.00
71735;BME280;59577;52.122;5.406;2024-03-02T06:21:42;100110.16;;;5.92;100.00
71735;BME280;59577;52.122;5.406;2024-03-02T06:24:09;100112.06;;;5.92;100.00
71735;BME280;59577;52.122;5.406;2024-03-02T06:26:36;100127.03;;;5.93;100.00
71735;BME280;59577;52.122;5.406;2024-03-02T06:29:02;100112.41;;;5.90;100.00
71735;BME280;59577;52.122;5.406;2024-03-02T06:31:29;100123.91;;;5.91;100.00
71735;BME280;59577;52.122;5.406;2024-03-02T06:33:56;100121.34;;;5.94;100.00
71735;BME280;59577;52.122;5.406;2024-03-02T06:36:22;100126.06;;;5.97;100.00
71735;BME280;59577;52.122;5.406;2024-03-02T06:38:49;100131.53;;;6.01;100.00
71735;BME280;59577;52.122;5.406;2024-03-02T06:41:16;100129.75;;;6.05;100.00
71735;BME280;59577;52.122;5.406;2024-03-02T06:43:43;100125.94;;;6.06;100.00
71735;BME280;59577;52.122;5.406;2024-03-02T06:46:09;100134.78;;;6.07;100.00
71735;BME280;59577;52.122;5.406;2024-03-02T06:48:36;100137.91;;;6.09;100.00
71735;BME280;59577;52.122;5.406;2024-03-02T06:51:03;100132.97;;;6.11;100.00
71735;BME280;59577;52.122;5.406;2024-03-02T06:53:29;100132.88;;;6.19;100.00
71735;BME280;59577;52.122;5.406;2024-03-02T06:55:56;100129.13;;;6.36;100.00
71735;BME280;59577;52.122;5.406;2024-03-02T06:58:23;100135.78;;;7.27;100.00
71735;BME280;59577;52.122;5.406;2024-03-02T07:00:49;100133.44;;;7.42;100.00
71735;BME280;59577;52.122;5.406;2024-03-02T07:03:16;100132.50;;;8.37;100.00
71735;BME280;59577;52.122;5.406;2024-03-02T07:05:42;100132.13;;;7.83;100.00
71735;BME280;59577;52.122;5.406;2024-03-02T07:08:09;100129.81;;;7.50;100.00
71735;BME280;59577;52.122;5.406;2024-03-02T07:10:35;100131.09;;;9.25;100.00
71735;BME280;59577;52.122;5.406;2024-03-02T07:13:02;100130.63;;;11.24;98.69
71735;BME280;59577;52.122;5.406;2024-03-02T07:15:29;100127.88;;;12.24;91.24
71735;BME280;59577;52.122;5.406;2024-03-02T07:18:11;100133.81;;;11.33;88.18
71735;BME280;59577;52.122;5.406;2024-03-02T07:20:37;100134.97;;;11.32;88.65
71735;BME280;59577;52.122;5.406;2024-03-02T07:23:05;100133.41;;;11.83;88.32
71735;BME280;59577;52.122;5.406;2024-03-02T07:25:32;100127.69;;;14.23;78.44
71735;BME280;59577;52.122;5.406;2024-03-02T07:28:02;100130.69;;;14.58;74.25
71735;BME280;59577;52.122;5.406;2024-03-02T07:30:29;100135.00;;;14.48;71.52
71735;BME280;59577;52.122;5.406;2024-03-02T07:32:59;100146.34;;;14.28;73.59
71735;BME280;59577;52.122;5.406;2024-03-02T07:35:26;100149.09;;;16.07;65.40
71735;BME280;59577;52.122;5.406;2024-03-02T07:37:58;100132.22;;;15.29;65.33
71735;BME280;59577;52.122;5.406;2024-03-02T07:40:24;100145.56;;;16.10;65.38
71735;BME280;59577;52.122;5.406;2024-03-02T07:42:51;100154.56;;;16.11;62.66
71735;BME280;59577;52.122;5.406;2024-03-02T07:45:18;100144.25;;;14.79;63.89
71735;BME280;59577;52.122;5.406;2024-03-02T07:47:46;100145.88;;;14.62;63.87
71735;BME280;59577;52.122;5.406;2024-03-02T07:50:12;100161.25;;;13.41;66.25
71735;BME280;59577;52.122;5.406;2024-03-02T07:52:39;100159.47;;;12.68;69.98
71735;BME280;59577;52.122;5.406;2024-03-02T07:55:06;100158.53;;;11.73;72.40
71735;BME280;59577;52.122;5.406;2024-03-02T07:57:32;100158.88;;;11.23;75.28
71735;BME280;59577;52.122;5.406;2024-03-02T07:59:59;100158.19;;;11.33;77.06
71735;BME280;59577;52.122;5.406;2024-03-02T08:02:26;100154.97;;;11.17;76.96
71735;BME280;59577;52.122;5.406;2024-03-02T08:04:52;100163.25;;;10.94;77.84
71735;BME280;59577;52.122;5.406;2024-03-02T08:07:19;100165.56;;;10.95;79.04
71735;BME280;59577;52.122;5.406;2024-03-02T08:09:45;100173.78;;;11.02;79.25
71735;BME280;59577;52.122;5.406;2024-03-02T08:12:12;100175.72;;;11.05;78.92
71735;BME280;59577;52.122;5.406;2024-03-02T08:14:38;100176.59;;;10.79;78.55
71735;BME280;59577;52.122;5.406;2024-03-02T08:17:05;100173.31;;;10.63;79.31
71735;BME280;59577;52.122;5.406;2024-03-02T08:19:36;100180.09;;;10.49;80.35
71735;BME280;59577;52.122;5.406;2024-03-02T08:22:03;100169.47;;;10.98;80.70
71735;BME280;59577;52.122;5.406;2024-03-02T08:24:30;100179.75;;;11.63;78.37
71735;BME280;59577;52.122;5.406;2024-03-02T08:26:59;100182.81;;;12.03;76.52
71735;BME280;59577;52.122;5.406;2024-03-02T08:29:25;100176.16;;;12.63;74.81
71735;BME280;59577;52.122;5.406;2024-03-02T08:31:53;100178.16;;;12.84;72.83
71735;BME280;59577;52.122;5.406;2024-03-02T08:34:19;100170.75;;;12.70;71.94
71735;BME280;59577;52.122;5.406;2024-03-02T08:36:46;100173.16;;;12.93;71.81
71735;BME280;59577;52.122;5.406;2024-03-02T08:39:12;100177.16;;;13.43;72.18
71735;BME280;59577;52.122;5.406;2024-03-02T08:41:44;100163.72;;;14.71;69.79
71735;BME280;59577;52.122;5.406;2024-03-02T08:44:11;100171.19;;;15.30;63.40
71735;BME280;59577;52.122;5.406;2024-03-02T08:46:39;100176.06;;;15.00;62.76
71735;BME280;59577;52.122;5.406;2024-03-02T08:49:06;100183.59;;;14.71;63.02
71735;BME280;59577;52.122;5.406;2024-03-02T08:51:33;100178.13;;;14.75;63.06
71735;BME280;59577;52.122;5.406;2024-03-02T08:54:00;100171.28;;;14.16;64.37
71735;BME280;59577;52.122;5.406;2024-03-02T08:56:26;100160.44;;;13.73;64.31
71735;BME280;59577;52.122;5.406;2024-03-02T08:58:53;100173.66;;;13.39;65.01
71735;BME280;59577;52.122;5.406;2024-03-02T09:01:20;100173.13;;;12.90;67.73
71735;BME280;59577;52.122;5.406;2024-03-02T09:03:46;100178.69;;;13.51;68.56
71735;BME280;59577;52.122;5.406;2024-03-02T09:06:13;100171.31;;;13.33;66.71
71735;BME280;59577;52.122;5.406;2024-03-02T09:08:40;100177.78;;;12.82;67.61
71735;BME280;59577;52.122;5.406;2024-03-02T09:11:07;100178.56;;;12.83;68.78
71735;BME280;59577;52.122;5.406;2024-03-02T09:13:34;100173.38;;;12.52;69.49
71735;BME280;59577;52.122;5.406;2024-03-02T09:16:01;100179.38;;;12.13;70.09
71735;BME280;59577;52.122;5.406;2024-03-02T09:18:27;100178.19;;;12.88;69.76
71735;BME280;59577;52.122;5.406;2024-03-02T09:20:54;100170.53;;;13.37;68.24
71735;BME280;59577;52.122;5.406;2024-03-02T09:23:21;100172.09;;;13.73;66.12
71735;BME280;59577;52.122;5.406;2024-03-02T09:25:47;100175.16;;;14.15;63.36
71735;BME280;59577;52.122;5.406;2024-03-02T09:28:17;100180.13;;;14.49;62.61
71735;BME280;59577;52.122;5.406;2024-03-02T09:30:43;100175.25;;;15.59;59.97
71735;BME280;59577;52.122;5.406;2024-03-02T09:33:10;100178.81;;;16.40;56.09
71735;BME280;59577;52.122;5.406;2024-03-02T09:35:39;100187.69;;;16.78;55.04
71735;BME280;59577;52.122;5.406;2024-03-02T09:38:06;100180.72;;;17.59;53.11
71735;BME280;59577;52.122;5.406;2024-03-02T09:40:32;100172.16;;;18.04;49.93
71735;BME280;59577;52.122;5.406;2024-03-02T09:42:59;100183.03;;;17.88;48.88
71735;BME280;59577;52.122;5.406;2024-03-02T09:45:27;100202.09;;;17.17;49.12
71735;BME280;59577;52.122;5.406;2024-03-02T09:47:54;100187.97;;;16.91;48.96
71735;BME280;59577;52.122;5.406;2024-03-02T09:50:21;100202.25;;;15.99;50.37
71735;BME280;59577;52.122;5.406;2024-03-02T09:52:48;100183.50;;;15.52;50.57
71735;BME280;59577;52.122;5.406;2024-03-02T09:55:16;100187.97;;;15.25;52.07
71735;BME280;59577;52.122;5.406;2024-03-02T09:57:45;100192.41;;;15.56;52.22
71735;BME280;59577;52.122;5.406;2024-03-02T10:00:12;100197.13;;;15.52;51.33
71735;BME280;59577;52.122;5.406;2024-03-02T10:02:42;100190.66;;;15.32;51.29
71735;BME280;59577;52.122;5.406;2024-03-02T10:05:09;100198.88;;;15.81;51.16
71735;BME280;59577;52.122;5.406;2024-03-02T10:07:36;100195.44;;;15.69;51.12
71735;BME280;59577;52.122;5.406;2024-03-02T10:10:23;100185.22;;;15.84;52.76
71735;BME280;59577;52.122;5.406;2024-03-02T10:13:03;100184.47;;;16.56;49.49
71735;BME280;59577;52.122;5.406;2024-03-02T10:15:30;100190.91;;;16.01;49.71
71735;BME280;59577;52.122;5.406;2024-03-02T10:17:56;100189.00;;;15.45;50.55
71735;BME280;59577;52.122;5.406;2024-03-02T10:20:25;100184.25;;;14.97;52.31
71735;BME280;59577;52.122;5.406;2024-03-02T10:22:52;100185.53;;;14.63;53.46
71735;BME280;59577;52.122;5.406;2024-03-02T10:25:32;100189.06;;;14.68;54.25
71735;BME280;59577;52.122;5.406;2024-03-02T10:28:16;100186.63;;;14.88;51.84
71735;BME280;59577;52.122;5.406;2024-03-02T10:30:43;100194.50;;;14.64;53.72
71735;BME280;59577;52.122;5.406;2024-03-02T10:33:09;100186.34;;;14.64;54.23
71735;BME280;59577;52.122;5.406;2024-03-02T10:35:36;100185.25;;;14.36;54.38
71735;BME280;59577;52.122;5.406;2024-03-02T10:38:04;100182.09;;;14.34;53.78
71735;BME280;59577;52.122;5.406;2024-03-02T10:40:31;100177.94;;;13.61;55.33
71735;BME280;59577;52.122;5.406;2024-03-02T10:42:59;100178.34;;;13.70;56.93
71735;BME280;59577;52.122;5.406;2024-03-02T10:45:28;100164.72;;;13.85;56.91
71735;BME280;59577;52.122;5.406;2024-03-02T10:47:56;100161.19;;;14.02;55.00
71735;BME280;59577;52.122;5.406;2024-03-02T10:50:24;100171.31;;;13.77;56.14
71735;BME280;59577;52.122;5.406;2024-03-02T10:52:51;100172.13;;;13.48;56.52
71735;BME280;59577;52.122;5.406;2024-03-02T10:55:17;100160.06;;;13.46;59.76
71735;BME280;59577;52.122;5.406;2024-03-02T10:57:50;100141.78;;;13.86;56.73
71735;BME280;59577;52.122;5.406;2024-03-02T11:00:18;100140.19;;;13.99;57.77
71735;BME280;59577;52.122;5.406;2024-03-02T11:02:51;100144.03;;;14.27;57.50
71735;BME280;59577;52.122;5.406;2024-03-02T11:05:29;100141.25;;;14.38;57.15
71735;BME280;59577;52.122;5.406;2024-03-02T11:08:02;100140.81;;;14.57;57.48
71735;BME280;59577;52.122;5.406;2024-03-02T11:10:38;100158.75;;;14.40;55.16
71735;BME280;59577;52.122;5.406;2024-03-02T11:13:12;100156.50;;;14.17;53.97
71735;BME280;59577;52.122;5.406;2024-03-02T11:15:40;100157.31;;;13.85;55.52
71735;BME280;59577;52.122;5.406;2024-03-02T11:18:10;100153.47;;;13.83;56.83
71735;BME280;59577;52.122;5.406;2024-03-02T11:20:38;100150.72;;;13.94;56.05
71735;BME280;59577;52.122;5.406;2024-03-02T11:23:07;100153.81;;;13.92;55.31
71735;BME280;59577;52.122;5.406;2024-03-02T11:25:34;100160.06;;;13.46;56.51
71735;BME280;59577;52.122;5.406;2024-03-02T11:28:03;100162.03;;;13.70;57.39
71735;BME280;59577;52.122;5.406;2024-03-02T11:33:04;100150.91;;;15.83;54.74
71735;BME280;59577;52.122;5.406;2024-03-02T11:35:36;100151.78;;;16.14;49.67
71735;BME280;59577;52.122;5.406;2024-03-02T11:38:04;100144.63;;;16.24;48.64
71735;BME280;59577;52.122;5.406;2024-03-02T11:40:32;100141.25;;;16.13;48.02
71735;BME280;59577;52.122;5.406;2024-03-02T11:42:59;100138.72;;;15.46;49.53
71735;BME280;59577;52.122;5.406;2024-03-02T11:45:27;100142.72;;;15.83;49.31
71735;BME280;59577;52.122;5.406;2024-03-02T11:47:55;100140.16;;;16.07;48.39
71735;BME280;59577;52.122;5.406;2024-03-02T11:50:33;100140.16;;;16.07;50.29
71735;BME280;59577;52.122;5.406;2024-03-02T11:53:00;100138.41;;;16.58;50.24
71735;BME280;59577;52.122;5.406;2024-03-02T11:55:28;100132.28;;;16.12;45.33
71735;BME280;59577;52.122;5.406;2024-03-02T11:57:55;100131.34;;;15.92;46.52
71735;BME280;59577;52.122;5.406;2024-03-02T12:00:22;100128.69;;;16.19;46.25
71735;BME280;59577;52.122;5.406;2024-03-02T12:03:06;100122.84;;;16.21;45.97
71735;BME280;59577;52.122;5.406;2024-03-02T12:05:33;100133.13;;;16.44;45.94
71735;BME280;59577;52.122;5.406;2024-03-02T12:08:01;100113.91;;;16.16;46.12
71735;BME280;59577;52.122;5.406;2024-03-02T12:10:28;100117.59;;;15.57;46.90
71735;BME280;59577;52.122;5.406;2024-03-02T12:13:06;100104.09;;;14.87;47.21
71735;BME280;59577;52.122;5.406;2024-03-02T12:15:35;100098.81;;;14.47;48.54
71735;BME280;59577;52.122;5.406;2024-03-02T12:18:05;100100.06;;;14.32;50.54
71735;BME280;59577;52.122;5.406;2024-03-02T12:20:33;100099.38;;;14.14;50.79
71735;BME280;59577;52.122;5.406;2024-03-02T12:23:01;100098.59;;;14.02;51.13
71735;BME280;59577;52.122;5.406;2024-03-02T12:25:30;100110.69;;;13.83;52.57
71735;BME280;59577;52.122;5.406;2024-03-02T12:27:59;100105.69;;;13.46;52.44
71735;BME280;59577;52.122;5.406;2024-03-02T12:30:29;100093.22;;;13.77;53.04
71735;BME280;59577;52.122;5.406;2024-03-02T12:32:56;100085.44;;;13.90;52.52
71735;BME280;59577;52.122;5.406;2024-03-02T12:35:24;100080.81;;;13.76;53.32
71735;BME280;59577;52.122;5.406;2024-03-02T12:37:52;100089.75;;;13.73;52.75
71735;BME280;59577;52.122;5.406;2024-03-02T12:40:20;100095.19;;;13.62;52.48
71735;BME280;59577;52.122;5.406;2024-03-02T12:42:50;100081.63;;;13.55;52.75
71735;BME280;59577;52.122;5.406;2024-03-02T12:45:17;100082.00;;;13.50;54.39
71735;BME280;59577;52.122;5.406;2024-03-02T12:47:51;100074.22;;;13.56;55.33
71735;BME280;59577;52.122;5.406;2024-03-02T12:50:18;100066.09;;;13.48;53.92
71735;BME280;59577;52.122;5.406;2024-03-02T12:52:55;100067.63;;;13.46;55.41
71735;BME280;59577;52.122;5.406;2024-03-02T12:55:23;100058.31;;;13.40;56.36
71735;BME280;59577;52.122;5.406;2024-03-02T12:57:51;100059.09;;;13.22;56.43
71735;BME280;59577;52.122;5.406;2024-03-02T13:00:20;100043.94;;;13.14;55.93